Time;durP1;ratioP1;P1;durP2;ratioP2;P2;SDS_P1;SDS_P2;PMS_P1;PMS_P2;Temp;Humidity;BMP_temperature;BMP_pressure;BME280_temperature;BME280_humidity;BME280_pressure;Samples;Min_cycle;Max_cycle;Signal;HPM_P1;HPM_P2
2023/03/10 00:01:28;;;;;;;10.20;4.70;;;10.20;94.20;;;;;;5028484;28;20063;-74
2023/03/10 00:03:55;;;;;;;10.65;4.63;;;10.10;94.20;;;;;;5027991;28;20029;-75
2023/03/10 00:06:23;;;;;;;15.88;5.38;;;10.10;94.20;;;;;;5027678;28;20132;-76
2023/03/10 00:08:50;;;;;;;8.27;4.63;;;10.10;94.20;;;;;;5026531;28;20389;-74
2023/03/10 00:11:16;;;;;;;8.82;4.28;;;10.00;94.30;;;;;;5025636;28;20029;-72
2023/03/10 00:13:43;;;;;;;8.20;4.10;;;10.10;94.40;;;;;;5031924;28;20464;-73
2023/03/10 00:16:17;;;;;;;10.15;4.38;;;10.10;94.50;;;;;;5034915;28;20064;-72
2023/03/10 00:18:44;;;;;;;11.45;4.85;;;10.10;94.50;;;;;;5016817;28;20033;-73
2023/03/10 00:21:14;;;;;;;9.77;4.18;;;10.10;94.60;;;;;;5038668;28;20062;-74
2023/03/10 00:23:40;;;;;;;7.88;4.05;;;10.10;94.50;;;;;;5019000;28;20033;-77
2023/03/10 00:26:06;;;;;;;12.32;4.35;;;10.10;94.50;;;;;;5041145;28;20055;-72
2023/03/10 00:28:32;;;;;;;9.82;3.83;;;10.10;94.50;;;;;;5033166;28;20108;-72
2023/03/10 00:31:04;;;;;;;8.35;4.00;;;10.10;94.50;;;;;;5005499;28;20037;-73
2023/03/10 00:33:32;;;;;;;11.73;4.15;;;10.10;94.50;;;;;;5042455;28;20028;-73
2023/03/10 00:36:06;;;;;;;9.90;4.95;;;10.10;94.50;;;;;;5005213;28;20038;-73
2023/03/10 00:38:32;;;;;;;9.80;4.68;;;10.10;94.50;;;;;;5011554;28;22130;-73
2023/03/10 00:41:06;;;;;;;7.95;4.00;;;10.20;94.60;;;;;;5035692;28;20043;-74
2023/03/10 00:43:33;;;;;;;8.17;4.50;;;10.20;94.60;;;;;;5016212;28;20137;-73
2023/03/10 00:45:59;;;;;;;12.88;4.70;;;10.10;94.50;;;;;;5039737;28;20303;-72
2023/03/10 00:48:25;;;;;;;10.80;4.43;;;10.20;94.50;;;;;;5035988;28;20469;-75
2023/03/10 00:50:51;;;;;;;12.13;4.20;;;10.20;94.50;;;;;;5029669;28;20041;-76
2023/03/10 00:53:17;;;;;;;11.02;4.30;;;10.20;94.50;;;;;;5035908;28;20026;-74
2023/03/10 00:55:43;;;;;;;12.43;5.03;;;10.20;94.40;;;;;;5028897;28;20034;-73
2023/03/10 00:58:09;;;;;;;10.27;4.63;;;10.10;94.50;;;;;;5031137;28;20033;-73
2023/03/10 01:00:35;;;;;;;13.25;5.20;;;10.10;94.50;;;;;;5027366;28;20064;-73
2023/03/10 01:03:01;;;;;;;11.05;4.68;;;10.20;94.50;;;;;;5043754;28;20048;-73
2023/03/10 01:05:30;;;;;;;10.07;4.28;;;10.20;94.50;;;;;;5039159;28;20075;-76
2023/03/10 01:07:55;;;;;;;19.75;5.07;;;10.20;94.50;;;;;;5027900;28;20077;-74
2023/03/10 01:10:22;;;;;;;13.07;5.28;;;10.30;94.60;;;;;;5026130;28;20065;-73
2023/03/10 01:12:47;;;;;;;13.07;4.65;;;10.30;94.60;;;;;;5025752;28;20037;-74
2023/03/10 01:15:13;;;;;;;14.18;5.35;;;10.30;94.60;;;;;;5009454;28;20022;-74
2023/03/10 01:17:39;;;;;;;15.00;4.85;;;10.30;94.60;;;;;;5008581;28;20041;-74
2023/03/10 01:20:07;;;;;;;14.82;5.00;;;10.30;94.60;;;;;;5013394;28;20086;-74
2023/03/10 01:22:33;;;;;;;10.75;4.85;;;10.30;94.50;;;;;;5025315;28;20044;-74
2023/03/10 01:24:59;;;;;;;15.52;4.90;;;10.30;94.50;;;;;;5027914;28;20026;-75
2023/03/10 01:27:25;;;;;;;13.68;4.57;;;10.30;94.40;;;;;;5023634;28;20095;-73
2023/03/10 01:29:50;;;;;;;14.18;4.55;;;10.30;94.40;;;;;;5026621;28;20029;-73
2023/03/10 01:32:16;;;;;;;17.83;4.82;;;10.30;94.30;;;;;;5025525;28;20041;-74
2023/03/10 01:34:42;;;;;;;14.93;4.75;;;10.40;94.30;;;;;;5025821;28;20037;-75
2023/03/10 01:37:08;;;;;;;14.05;4.18;;;10.30;94.20;;;;;;5024585;28;20573;-76
2023/03/10 01:39:33;;;;;;;15.25;4.72;;;10.30;94.10;;;;;;5026193;28;20033;-73
2023/03/10 01:42:00;;;;;;;15.85;4.10;;;10.30;94.20;;;;;;5024746;28;20449;-74
2023/03/10 01:44:26;;;;;;;13.73;3.70;;;10.40;94.10;;;;;;5008221;28;20045;-72
2023/03/10 01:46:53;;;;;;;12.50;3.80;;;10.30;94.00;;;;;;5027892;28;20183;-74
2023/03/10 01:49:29;;;;;;;15.10;5.63;;;10.40;93.90;;;;;;5026687;28;20029;-72
2023/03/10 01:52:27;;;;;;;12.15;3.75;;;10.30;93.90;;;;;;5024138;28;20076;-73
2023/03/10 01:55:01;;;;;;;13.57;3.30;;;10.40;93.80;;;;;;4996916;28;20044;-72
2023/03/10 01:57:31;;;;;;;13.10;3.47;;;10.40;93.70;;;;;;5025688;28;20377;-72
2023/03/10 01:59:58;;;;;;;14.10;3.38;;;10.40;93.70;;;;;;5023945;28;20022;-72
2023/03/10 02:02:25;;;;;;;16.10;4.20;;;10.40;93.60;;;;;;5026155;28;20120;-73
2023/03/10 02:04:53;;;;;;;11.32;3.30;;;10.40;93.50;;;;;;5025883;28;20112;-73
2023/03/10 02:07:23;;;;;;;13.57;3.17;;;10.50;93.30;;;;;;5022957;28;20040;-73
2023/03/10 02:09:51;;;;;;;18.35;4.53;;;10.50;93.30;;;;;;5025365;28;20025;-74
2023/03/10 02:12:19;;;;;;;14.20;3.58;;;10.50;93.20;;;;;;5026183;28;20072;-74
2023/03/10 02:14:46;;;;;;;14.05;3.75;;;10.50;93.30;;;;;;5022668;28;20053;-74
2023/03/10 02:17:15;;;;;;;9.88;3.28;;;10.50;93.30;;;;;;5025938;28;20037;-78
2023/03/10 02:20:03;;;;;;;13.65;3.80;;;10.50;93.20;;;;;;5023671;28;20623;-75
2023/03/10 02:22:31;;;;;;;13.80;3.03;;;10.50;93.20;;;;;;5022985;28;20402;-73
2023/03/10 02:25:10;;;;;;;10.93;3.47;;;10.50;93.20;;;;;;5025505;28;20031;-73
2023/03/10 02:27:39;;;;;;;15.05;4.50;;;10.40;93.20;;;;;;5024607;28;20037;-74
2023/03/10 02:30:10;;;;;;;13.88;3.85;;;10.40;93.30;;;;;;5006996;28;20680;-75
2023/03/10 02:32:45;;;;;;;17.13;3.78;;;10.40;93.20;;;;;;5021683;28;20044;-75
2023/03/10 02:35:11;;;;;;;10.20;3.15;;;10.30;93.30;;;;;;5019729;28;20470;-78
2023/03/10 02:37:37;;;;;;;9.63;2.72;;;10.30;93.30;;;;;;5022884;28;20490;-74
2023/03/10 02:40:40;;;;;;;13.48;3.10;;;10.30;93.30;;;;;;5024878;28;20079;-74
2023/03/10 02:43:12;;;;;;;8.75;2.88;;;10.20;93.20;;;;;;5023552;28;20057;-75
2023/03/10 02:45:41;;;;;;;7.43;2.47;;;10.20;93.10;;;;;;5010546;28;20054;-74
2023/03/10 02:48:09;;;;;;;5.82;2.20;;;10.10;93.10;;;;;;5026350;28;20087;-75
2023/03/10 02:50:37;;;;;;;7.32;2.47;;;10.10;93.00;;;;;;5020600;28;20040;-73
2023/03/10 02:53:25;;;;;;;5.75;1.75;;;10.10;93.00;;;;;;5006235;28;20130;-75
2023/03/10 02:55:51;;;;;;;6.55;1.98;;;10.00;93.00;;;;;;5018673;28;20044;-73
2023/03/10 02:58:17;;;;;;;5.15;1.73;;;10.00;93.10;;;;;;5028418;28;20030;-74
2023/03/10 03:00:45;;;;;;;5.20;1.58;;;9.90;93.10;;;;;;5021702;28;20112;-73
2023/03/10 03:03:12;;;;;;;3.78;1.67;;;9.90;93.10;;;;;;5021747;28;20099;-74
2023/03/10 03:05:38;;;;;;;3.85;1.48;;;9.90;93.10;;;;;;5025884;28;20036;-74
2023/03/10 03:08:05;;;;;;;6.50;1.70;;;9.80;93.00;;;;;;5024098;28;20032;-74
2023/03/10 03:10:31;;;;;;;3.80;1.60;;;9.80;93.10;;;;;;5023947;28;20030;-73
2023/03/10 03:12:56;;;;;;;6.78;1.73;;;9.80;93.10;;;;;;5005523;28;20029;-76
2023/03/10 03:15:22;;;;;;;3.40;1.40;;;9.80;93.10;;;;;;5024807;28;20030;-74
2023/03/10 03:17:48;;;;;;;3.05;1.40;;;9.70;93.10;;;;;;5004806;28;20049;-74
2023/03/10 03:20:14;;;;;;;5.20;1.75;;;9.70;93.10;;;;;;5006733;28;20036;-73
2023/03/10 03:22:41;;;;;;;6.22;1.80;;;9.70;93.10;;;;;;5022106;28;20119;-76
2023/03/10 03:25:08;;;;;;;5.97;2.17;;;9.70;93.10;;;;;;5024506;28;20028;-74
2023/03/10 03:27:35;;;;;;;4.32;2.00;;;9.70;93.10;;;;;;5021935;28;20034;-73
2023/03/10 03:30:01;;;;;;;4.57;2.28;;;9.60;93.20;;;;;;5022232;28;20501;-77
2023/03/10 03:32:27;;;;;;;6.57;2.10;;;9.60;93.10;;;;;;5022484;28;20046;-73
2023/03/10 03:34:53;;;;;;;7.10;2.50;;;9.60;93.20;;;;;;5021086;28;20033;-77
2023/03/10 03:37:18;;;;;;;8.95;3.20;;;9.60;93.20;;;;;;5027536;28;20056;-72
2023/03/10 03:39:44;;;;;;;14.60;4.95;;;9.60;93.20;;;;;;5029380;28;20039;-73
2023/03/10 03:42:09;;;;;;;25.10;7.22;;;9.60;93.30;;;;;;5024839;28;20041;-73
2023/03/10 03:44:35;;;;;;;19.90;6.65;;;9.60;93.30;;;;;;5027717;28;20105;-74
2023/03/10 03:47:01;;;;;;;17.92;6.47;;;9.60;93.40;;;;;;5027505;28;20180;-73
2023/03/10 03:49:26;;;;;;;20.45;5.88;;;9.70;93.40;;;;;;5028389;28;20388;-72
2023/03/10 03:51:52;;;;;;;16.00;4.85;;;9.70;93.50;;;;;;5027065;28;20049;-73
2023/03/10 03:54:18;;;;;;;16.02;3.88;;;9.70;93.50;;;;;;5029498;28;20021;-73
2023/03/10 03:56:44;;;;;;;14.43;4.00;;;9.70;93.60;;;;;;5022757;28;20049;-74
2023/03/10 03:59:09;;;;;;;19.02;4.13;;;9.80;93.50;;;;;;5032082;28;20059;-75
2023/03/10 04:01:35;;;;;;;23.45;4.55;;;9.80;93.50;;;;;;5032154;28;20155;-75
2023/03/10 04:04:01;;;;;;;17.95;4.30;;;9.80;93.40;;;;;;5010604;28;20033;-72
2023/03/10 04:06:26;;;;;;;19.00;4.28;;;9.80;93.30;;;;;;5028625;28;20095;-74
2023/03/10 04:08:52;;;;;;;15.50;3.25;;;9.80;93.10;;;;;;5028221;28;20482;-74
2023/03/10 04:11:18;;;;;;;14.82;3.97;;;9.90;92.80;;;;;;5029892;28;20045;-73
2023/03/10 04:13:44;;;;;;;13.30;3.38;;;9.90;92.60;;;;;;5033450;28;20398;-74
2023/03/10 04:16:09;;;;;;;17.88;3.40;;;9.90;92.40;;;;;;5022746;28;20033;-73
2023/03/10 04:18:35;;;;;;;13.85;3.20;;;9.90;92.10;;;;;;5027732;28;20033;-73
2023/03/10 04:21:01;;;;;;;15.88;3.28;;;10.00;92.00;;;;;;5026826;28;20086;-74
2023/03/10 04:23:26;;;;;;;16.98;3.53;;;10.00;91.90;;;;;;5027600;28;20025;-73
2023/03/10 04:25:52;;;;;;;18.17;3.70;;;10.00;91.70;;;;;;5033284;28;20063;-75
2023/03/10 04:28:18;;;;;;;17.20;4.18;;;10.00;91.60;;;;;;5028942;28;20079;-74
2023/03/10 04:30:45;;;;;;;17.42;3.83;;;10.00;91.60;;;;;;5026112;28;20040;-75
2023/03/10 04:33:11;;;;;;;21.58;3.92;;;9.90;91.60;;;;;;5029498;28;20338;-73
2023/03/10 04:35:41;;;;;;;16.73;3.70;;;9.90;91.50;;;;;;5030598;28;20029;-73
2023/03/10 04:38:07;;;;;;;12.93;3.28;;;9.80;91.50;;;;;;5022721;28;20514;-73
2023/03/10 04:40:33;;;;;;;18.02;3.63;;;9.80;91.40;;;;;;5032651;28;20034;-72
2023/03/10 04:42:58;;;;;;;21.27;4.38;;;9.80;91.40;;;;;;5022716;28;20057;-75
2023/03/10 04:45:24;;;;;;;16.55;4.10;;;9.80;91.30;;;;;;5026473;28;20091;-76
2023/03/10 04:47:50;;;;;;;15.73;3.53;;;9.80;91.30;;;;;;5027445;28;20095;-75
2023/03/10 04:50:16;;;;;;;16.48;4.18;;;9.90;91.20;;;;;;5027453;28;20025;-75
2023/03/10 04:52:44;;;;;;;16.70;4.05;;;9.80;91.10;;;;;;5029593;28;20041;-74
2023/03/10 04:55:11;;;;;;;14.88;3.33;;;9.80;91.10;;;;;;5027372;28;20519;-74
2023/03/10 04:57:37;;;;;;;20.67;4.95;;;9.80;91.00;;;;;;5020947;28;20402;-72
2023/03/10 05:00:06;;;;;;;20.38;3.67;;;9.80;91.00;;;;;;5028060;28;20029;-75
2023/03/10 05:02:33;;;;;;;17.40;4.47;;;9.80;91.00;;;;;;5025886;28;20069;-75
2023/03/10 05:05:00;;;;;;;17.20;3.70;;;9.80;91.00;;;;;;5021633;28;20034;-73
2023/03/10 05:07:26;;;;;;;15.57;3.67;;;9.80;90.80;;;;;;5017739;28;20084;-74
2023/03/10 05:09:52;;;;;;;19.10;4.10;;;9.80;90.70;;;;;;5026963;28;20034;-72
2023/03/10 05:12:18;;;;;;;17.60;4.03;;;9.80;90.60;;;;;;5026490;28;20029;-73
2023/03/10 05:14:43;;;;;;;16.45;3.92;;;9.80;90.70;;;;;;5002941;28;20753;-71
2023/03/10 05:17:10;;;;;;;18.33;4.28;;;9.80;90.70;;;;;;5025365;28;20037;-75
2023/03/10 05:19:35;;;;;;;15.15;3.92;;;9.80;90.80;;;;;;5026986;28;20553;-72
2023/03/10 05:22:02;;;;;;;16.95;3.60;;;9.80;90.70;;;;;;5024527;28;20113;-75
2023/03/10 05:24:28;;;;;;;17.52;3.63;;;9.70;90.70;;;;;;5026553;28;20548;-74
2023/03/10 05:26:54;;;;;;;16.40;3.40;;;9.70;90.90;;;;;;5007213;28;20041;-73
2023/03/10 05:29:20;;;;;;;15.93;3.70;;;9.80;90.80;;;;;;5023689;28;20022;-74
2023/03/10 05:31:46;;;;;;;17.15;3.83;;;9.80;90.70;;;;;;5026314;28;20037;-76
2023/03/10 05:34:13;;;;;;;20.88;4.68;;;9.80;90.60;;;;;;5023450;28;20027;-75
2023/03/10 05:36:39;;;;;;;19.30;4.38;;;9.80;90.60;;;;;;5025368;28;20049;-73
2023/03/10 05:39:05;;;;;;;23.50;5.10;;;9.80;90.60;;;;;;5023760;28;20036;-74
2023/03/10 05:41:32;;;;;;;21.85;5.95;;;9.80;90.70;;;;;;5008788;28;20288;-74
2023/03/10 05:43:58;;;;;;;20.95;5.18;;;9.80;90.80;;;;;;5012832;28;20037;-73
2023/03/10 05:46:24;;;;;;;21.55;4.65;;;9.80;90.90;;;;;;5011670;28;20482;-74
2023/03/10 05:48:49;;;;;;;17.92;4.75;;;9.80;91.10;;;;;;5015293;28;20064;-73
2023/03/10 05:51:16;;;;;;;27.67;4.97;;;9.80;91.00;;;;;;5017092;28;20037;-72
2023/03/10 05:53:42;;;;;;;19.02;4.47;;;9.80;91.10;;;;;;5011264;28;20068;-76
2023/03/10 05:56:14;;;;;;;26.92;4.68;;;9.70;91.10;;;;;;5018043;28;20112;-80
2023/03/10 05:58:40;;;;;;;21.13;3.97;;;9.80;91.10;;;;;;5024532;28;20045;-75
2023/03/10 06:01:07;;;;;;;18.50;4.72;;;9.80;91.10;;;;;;5025991;28;20511;-75
2023/03/10 06:03:33;;;;;;;19.70;3.90;;;9.80;91.10;;;;;;5008181;28;20075;-74
2023/03/10 06:05:59;;;;;;;18.83;4.78;;;9.80;90.90;;;;;;5024364;28;20033;-73
2023/03/10 06:08:29;;;;;;;18.13;4.03;;;9.80;90.90;;;;;;5023218;28;20685;-74
2023/03/10 06:10:56;;;;;;;16.52;4.13;;;9.80;90.70;;;;;;5031210;28;20037;-73
2023/03/10 06:13:22;;;;;;;18.38;4.68;;;9.80;90.60;;;;;;5026348;28;20021;-72
2023/03/10 06:16:06;;;;;;;18.08;4.03;;;9.80;90.70;;;;;;5027615;28;20029;-73
2023/03/10 06:18:32;;;;;;;21.48;3.72;;;9.80;90.70;;;;;;5027857;28;20124;-74
2023/03/10 06:20:58;;;;;;;17.77;5.13;;;9.80;90.70;;;;;;5033768;28;20493;-74
2023/03/10 06:23:25;;;;;;;18.58;3.88;;;9.80;90.70;;;;;;5029092;28;20560;-74
2023/03/10 06:26:02;;;;;;;18.83;3.55;;;9.80;90.80;;;;;;5020812;28;20030;-74
2023/03/10 06:28:32;;;;;;;15.15;4.10;;;9.70;91.00;;;;;;5030674;28;20025;-74
2023/03/10 06:30:59;;;;;;;17.35;3.85;;;9.70;91.10;;;;;;5027336;28;20057;-74
2023/03/10 06:33:25;;;;;;;15.63;3.67;;;9.70;91.20;;;;;;5024701;28;20096;-74
2023/03/10 06:35:51;;;;;;;14.55;4.38;;;9.60;91.40;;;;;;5024117;28;20048;-75
2023/03/10 06:38:17;;;;;;;16.45;4.40;;;9.60;91.50;;;;;;5021617;28;20025;-75
2023/03/10 06:40:42;;;;;;;20.10;3.78;;;9.60;91.60;;;;;;5007280;28;20464;-75
2023/03/10 06:43:08;;;;;;;17.23;3.97;;;9.60;91.70;;;;;;5030702;28;20064;-75
2023/03/10 06:45:34;;;;;;;17.27;3.88;;;9.60;91.90;;;;;;5026958;28;20144;-75
2023/03/10 06:48:00;;;;;;;16.65;3.38;;;9.50;92.10;;;;;;5009388;28;20139;-75
2023/03/10 06:50:26;;;;;;;14.18;3.75;;;9.60;92.10;;;;;;5025181;28;20029;-75
2023/03/10 06:52:51;;;;;;;16.83;4.28;;;9.50;92.30;;;;;;5029172;28;20041;-74
2023/03/10 06:55:17;;;;;;;15.85;4.32;;;9.50;92.40;;;;;;5024886;28;20057;-73
2023/03/10 06:57:43;;;;;;;22.00;3.90;;;9.60;92.50;;;;;;5020314;28;20037;-74
2023/03/10 07:00:10;;;;;;;15.82;3.95;;;9.50;92.60;;;;;;5028699;28;20034;-75
2023/03/10 07:02:37;;;;;;;15.40;3.47;;;9.50;92.70;;;;;;5023143;28;20033;-74
2023/03/10 07:05:10;;;;;;;16.15;3.83;;;9.60;92.90;;;;;;5027140;28;20021;-73
2023/03/10 07:07:35;;;;;;;16.55;3.88;;;9.60;92.90;;;;;;5013191;28;20115;-75
2023/03/10 07:10:01;;;;;;;15.38;5.38;;;9.60;92.90;;;;;;5029179;28;20057;-76
2023/03/10 07:12:27;;;;;;;17.88;3.90;;;9.60;93.00;;;;;;5023767;28;20038;-76
2023/03/10 07:14:52;;;;;;;16.80;4.53;;;9.50;93.00;;;;;;5024820;28;20033;-74
2023/03/10 07:17:18;;;;;;;13.82;4.25;;;9.50;93.10;;;;;;5003336;28;20041;-75
2023/03/10 07:19:44;;;;;;;14.70;4.63;;;9.60;93.20;;;;;;5026016;28;20030;-75
2023/03/10 07:22:09;;;;;;;18.73;5.22;;;9.60;93.20;;;;;;5021286;28;20853;-75
2023/03/10 07:24:35;;;;;;;20.35;5.75;;;9.60;93.30;;;;;;5029365;28;20149;-76
2023/03/10 07:27:01;;;;;;;16.67;5.70;;;9.60;93.40;;;;;;5024557;28;20083;-75
2023/03/10 07:29:28;;;;;;;19.60;5.13;;;9.50;93.50;;;;;;5028435;28;20136;-75
2023/03/10 07:31:54;;;;;;;16.42;4.93;;;9.50;93.40;;;;;;5031633;28;20052;-75
2023/03/10 07:34:20;;;;;;;15.30;5.20;;;9.60;93.50;;;;;;5029977;28;20391;-75
2023/03/10 07:36:46;;;;;;;19.40;5.80;;;9.60;93.50;;;;;;5028302;28;20033;-75
2023/03/10 07:39:11;;;;;;;15.98;5.40;;;9.60;93.50;;;;;;5027405;28;20065;-75
2023/03/10 07:41:37;;;;;;;15.77;5.38;;;9.60;93.50;;;;;;5029787;28;20040;-75
2023/03/10 07:44:03;;;;;;;14.10;5.10;;;9.60;93.60;;;;;;5002995;28;20032;-75
2023/03/10 07:46:30;;;;;;;17.33;5.03;;;9.60;93.60;;;;;;5018626;28;20436;-74
2023/03/10 07:48:58;;;;;;;11.80;4.72;;;9.60;93.60;;;;;;5023307;28;20051;-75
2023/03/10 07:51:24;;;;;;;12.00;4.32;;;9.70;93.50;;;;;;5028955;28;20033;-75
2023/03/10 07:53:50;;;;;;;11.20;4.38;;;9.70;93.50;;;;;;5026834;28;21007;-75
2023/03/10 07:56:16;;;;;;;13.48;5.13;;;9.70;93.50;;;;;;5023099;28;20038;-75
2023/03/10 07:58:41;;;;;;;13.77;5.85;;;9.80;93.50;;;;;;5028788;28;20095;-78
2023/03/10 08:01:12;;;;;;;12.55;4.80;;;9.80;93.40;;;;;;5026792;28;20080;-77
2023/03/10 08:03:38;;;;;;;11.40;4.53;;;9.80;93.30;;;;;;5025450;28;20022;-77
2023/03/10 08:06:04;;;;;;;14.43;4.85;;;9.70;93.30;;;;;;5032289;28;20041;-77
2023/03/10 08:08:30;;;;;;;14.57;5.32;;;9.70;93.40;;;;;;5026414;28;20028;-77
2023/03/10 08:11:05;;;;;;;15.10;5.25;;;9.70;93.40;;;;;;5031808;28;20546;-76
2023/03/10 08:13:31;;;;;;;12.63;4.50;;;9.70;93.40;;;;;;5029477;28;20022;-76
2023/03/10 08:15:59;;;;;;;11.30;4.72;;;9.70;93.50;;;;;;5026936;28;20486;-77
2023/03/10 08:18:25;;;;;;;16.67;5.13;;;9.60;93.60;;;;;;5030827;28;20033;-75
2023/03/10 08:20:51;;;;;;;12.68;5.47;;;9.70;93.60;;;;;;5013299;28;20073;-76
2023/03/10 08:23:16;;;;;;;11.60;5.80;;;9.70;93.60;;;;;;5012307;28;20028;-76
2023/03/10 08:25:42;;;;;;;12.10;5.10;;;9.70;93.60;;;;;;5027971;28;20025;-76
2023/03/10 08:28:08;;;;;;;9.15;4.32;;;9.70;93.60;;;;;;5029010;28;20477;-76
2023/03/10 08:30:34;;;;;;;12.52;5.35;;;9.70;93.70;;;;;;5010610;28;20025;-77
2023/03/10 08:33:00;;;;;;;11.02;5.28;;;9.80;93.70;;;;;;5030559;28;20036;-77
2023/03/10 08:35:25;;;;;;;13.60;5.53;;;9.80;93.80;;;;;;5034224;28;20538;-77
2023/03/10 08:37:52;;;;;;;11.20;5.57;;;9.80;93.70;;;;;;5009257;28;20053;-77
2023/03/10 08:40:18;;;;;;;8.80;5.70;;;9.90;93.70;;;;;;5023833;28;20025;-77
2023/03/10 08:42:44;;;;;;;10.18;5.18;;;9.90;93.60;;;;;;5026995;28;20374;-75
2023/03/10 08:45:11;;;;;;;11.00;5.20;;;10.00;93.70;;;;;;5036231;28;20033;-76
2023/03/10 08:47:38;;;;;;;8.00;4.55;;;10.00;93.60;;;;;;5005172;28;20041;-76
2023/03/10 08:50:06;;;;;;;6.68;4.00;;;10.10;93.60;;;;;;5032084;28;20100;-76
2023/03/10 08:52:32;;;;;;;7.50;4.25;;;10.10;93.60;;;;;;5030441;28;20042;-75
2023/03/10 08:54:59;;;;;;;8.60;4.18;;;10.10;93.50;;;;;;5029058;28;20091;-76
2023/03/10 08:57:24;;;;;;;8.07;4.57;;;10.10;93.50;;;;;;5033020;28;20041;-74
2023/03/10 08:59:50;;;;;;;8.23;4.20;;;10.10;93.40;;;;;;5033813;28;20041;-75
2023/03/10 09:02:16;;;;;;;7.40;4.35;;;10.30;93.30;;;;;;5030518;28;20038;-75
2023/03/10 09:04:42;;;;;;;9.48;5.25;;;10.30;93.30;;;;;;5029757;28;20022;-75
2023/03/10 09:07:09;;;;;;;8.73;4.47;;;10.40;93.10;;;;;;5026469;28;20029;-74
2023/03/10 09:09:34;;;;;;;9.88;5.20;;;10.40;93.10;;;;;;5023592;28;20117;-75
2023/03/10 09:12:00;;;;;;;9.50;4.57;;;10.50;92.90;;;;;;5024853;28;20120;-75
2023/03/10 09:14:26;;;;;;;7.90;5.20;;;10.40;92.80;;;;;;5026678;28;20063;-76
2023/03/10 09:16:51;;;;;;;8.27;5.47;;;10.50;92.90;;;;;;5006619;28;20163;-76
2023/03/10 09:19:17;;;;;;;10.40;6.05;;;10.40;92.90;;;;;;5028514;28;20037;-76
2023/03/10 09:21:43;;;;;;;9.18;6.10;;;10.50;93.00;;;;;;5026099;28;20049;-78
2023/03/10 09:24:09;;;;;;;10.05;6.30;;;10.50;92.80;;;;;;5025893;28;20022;-76
2023/03/10 09:26:35;;;;;;;11.30;6.53;;;10.60;92.80;;;;;;5026726;28;20041;-76
2023/03/10 09:29:01;;;;;;;11.45;6.30;;;10.60;92.60;;;;;;5025148;28;20041;-75
2023/03/10 09:31:38;;;;;;;10.27;5.82;;;10.60;92.70;;;;;;5025792;28;20103;-75
2023/03/10 09:34:04;;;;;;;10.93;6.38;;;10.70;92.60;;;;;;4999077;28;20860;-77
2023/03/10 09:36:31;;;;;;;8.70;5.80;;;10.70;92.50;;;;;;5015358;28;20041;-76
2023/03/10 09:38:57;;;;;;;8.52;5.75;;;10.70;92.50;;;;;;5025025;28;20076;-74
2023/03/10 09:41:35;;;;;;;8.68;6.15;;;10.70;92.20;;;;;;5028407;28;20556;-75
2023/03/10 09:44:11;;;;;;;10.98;6.65;;;10.70;92.20;;;;;;5028174;28;20025;-77
2023/03/10 09:46:44;;;;;;;12.18;6.35;;;10.70;92.40;;;;;;5026197;28;20103;-75
2023/03/10 09:49:35;;;;;;;12.20;6.75;;;10.70;92.50;;;;;;5032537;28;20029;-77
2023/03/10 09:52:15;;;;;;;10.02;6.47;;;10.70;92.70;;;;;;5025877;28;20120;-75
2023/03/10 09:54:45;;;;;;;12.27;7.15;;;10.70;92.60;;;;;;5029218;28;20793;-75
2023/03/10 09:57:19;;;;;;;9.40;5.85;;;10.80;92.70;;;;;;5010604;28;20506;-75
2023/03/10 09:59:48;;;;;;;8.73;5.07;;;10.80;92.50;;;;;;5032771;28;20120;-75
2023/03/10 10:02:24;;;;;;;10.13;5.40;;;10.80;92.60;;;;;;5008768;28;20044;-74
2023/03/10 10:04:56;;;;;;;11.98;5.78;;;10.80;92.50;;;;;;5028302;28;20033;-75
2023/03/10 10:07:25;;;;;;;12.40;5.78;;;10.80;92.60;;;;;;5024012;28;20037;-76
2023/03/10 10:10:08;;;;;;;10.50;6.38;;;10.80;92.60;;;;;;5026781;28;20033;-75
2023/03/10 10:12:35;;;;;;;8.98;4.95;;;10.90;92.70;;;;;;5024606;28;20025;-76
2023/03/10 10:15:12;;;;;;;11.32;5.80;;;10.90;92.60;;;;;;5024763;28;20098;-76
2023/03/10 10:18:06;;;;;;;10.20;5.53;;;10.90;92.70;;;;;;5024863;28;20042;-76
2023/03/10 10:20:38;;;;;;;10.63;6.78;;;10.90;92.60;;;;;;5021909;28;20018;-76
2023/03/10 10:23:13;;;;;;;11.70;6.60;;;10.80;92.60;;;;;;5025429;28;20021;-76
2023/03/10 10:25:40;;;;;;;13.60;7.75;;;10.80;92.80;;;;;;5017057;28;20029;-78
2023/03/10 10:28:20;;;;;;;12.95;8.10;;;10.80;93.00;;;;;;5025230;28;20108;-77
2023/03/10 10:30:46;;;;;;;12.35;8.38;;;11.00;92.90;;;;;;5023255;28;20092;-76
2023/03/10 10:33:13;;;;;;;13.77;9.15;;;11.20;92.60;;;;;;5026092;28;20057;-77
2023/03/10 10:36:01;;;;;;;12.88;8.63;;;11.30;92.10;;;;;;5011748;28;20056;-77
2023/03/10 10:38:29;;;;;;;13.13;8.48;;;11.20;91.90;;;;;;5024411;28;20032;-76
2023/03/10 10:41:05;;;;;;;15.77;9.02;;;11.10;91.70;;;;;;5022885;28;20116;-75
2023/03/10 10:43:40;;;;;;;11.27;8.95;;;11.10;92.10;;;;;;5024403;28;20032;-75
2023/03/10 10:46:07;;;;;;;11.93;5.78;;;11.10;92.10;;;;;;5020511;28;20088;-75
2023/03/10 10:48:45;;;;;;;8.15;4.90;;;11.10;92.10;;;;;;5024589;28;20099;-75
2023/03/10 10:51:23;;;;;;;7.57;4.32;;;11.10;92.30;;;;;;5021440;28;20161;-74
2023/03/10 10:53:49;;;;;;;7.18;3.35;;;11.00;92.40;;;;;;5023884;28;20033;-74
2023/03/10 10:56:19;;;;;;;4.72;2.70;;;10.80;92.20;;;;;;5019966;28;20042;-75
2023/03/10 10:59:21;;;;;;;6.25;3.20;;;10.70;92.30;;;;;;5023573;28;20095;-75
2023/03/10 11:01:54;;;;;;;8.50;3.33;;;10.70;92.30;;;;;;5022772;28;20038;-77
2023/03/10 11:04:22;;;;;;;7.22;3.55;;;10.60;92.00;;;;;;5024479;28;20482;-75
2023/03/10 11:06:49;;;;;;;7.03;3.70;;;10.50;92.10;;;;;;5020121;28;20525;-75
2023/03/10 11:09:20;;;;;;;8.10;3.78;;;10.50;92.30;;;;;;5020927;28;20030;-75
2023/03/10 11:12:20;;;;;;;7.47;3.55;;;10.50;92.00;;;;;;5024003;28;20394;-76
2023/03/10 11:15:07;;;;;;;9.02;3.85;;;10.40;92.10;;;;;;5024330;28;20362;-78
2023/03/10 11:17:52;;;;;;;7.25;3.78;;;10.40;91.90;;;;;;5024074;28;20268;-76
2023/03/10 11:20:49;;;;;;;6.63;4.15;;;10.20;92.00;;;;;;5023784;28;20029;-76
2023/03/10 11:23:18;;;;;;;7.60;3.80;;;10.00;91.80;;;;;;5014479;28;20502;-76
2023/03/10 11:26:15;;;;;;;5.13;3.50;;;9.60;91.40;;;;;;5020076;28;20565;-77
2023/03/10 11:28:54;;;;;;;5.78;4.10;;;9.60;91.20;;;;;;5021079;28;20037;-77
2023/03/10 11:31:29;;;;;;;6.38;4.20;;;9.50;91.30;;;;;;5019661;28;20509;-75
2023/03/10 11:34:13;;;;;;;7.50;4.93;;;9.60;91.50;;;;;;5026745;28;20462;-77
2023/03/10 11:37:02;;;;;;;7.00;4.43;;;9.50;91.10;;;;;;5020806;28;20042;-75
2023/03/10 11:39:49;;;;;;;9.00;5.75;;;9.10;90.10;;;;;;4992940;28;20046;-78
2023/03/10 11:42:57;;;;;;;7.40;5.13;;;9.10;89.30;;;;;;5018686;28;20144;-76
2023/03/10 11:45:51;;;;;;;8.27;5.05;;;9.10;89.30;;;;;;5022199;28;20494;-76
2023/03/10 11:48:35;;;;;;;8.35;4.88;;;9.10;89.20;;;;;;5020426;28;20347;-78
2023/03/10 11:51:04;;;;;;;5.33;3.67;;;9.10;89.20;;;;;;5024282;28;20064;-78
2023/03/10 11:53:29;;;;;;;5.78;3.70;;;9.00;88.50;;;;;;5025287;28;20358;-76
2023/03/10 11:55:58;;;;;;;7.18;3.50;;;9.00;88.20;;;;;;5028349;28;20116;-76
2023/03/10 11:58:45;;;;;;;6.10;3.35;;;8.80;88.10;;;;;;5008902;28;20038;-77
2023/03/10 12:01:32;;;;;;;6.35;3.38;;;8.70;88.50;;;;;;5025293;28;20057;-77
2023/03/10 12:04:04;;;;;;;7.30;3.50;;;8.60;88.50;;;;;;5034937;28;20048;-78
2023/03/10 12:06:40;;;;;;;9.52;4.65;;;8.60;88.70;;;;;;5028811;28;20121;-78
2023/03/10 12:09:13;;;;;;;7.25;3.97;;;8.60;88.90;;;;;;5022492;28;20065;-80
2023/03/10 12:11:40;;;;;;;8.52;3.97;;;8.60;89.10;;;;;;5023270;28;20034;-78
2023/03/10 12:14:05;;;;;;;9.23;4.72;;;8.60;89.40;;;;;;5027530;28;20032;-78
2023/03/10 12:16:36;;;;;;;10.05;4.25;;;8.70;89.50;;;;;;5026137;28;20421;-78
2023/03/10 12:19:04;;;;;;;10.90;5.35;;;8.60;89.50;;;;;;5019443;28;20038;-78
2023/03/10 12:21:32;;;;;;;11.55;6.85;;;8.60;90.30;;;;;;5022939;28;20090;-78
2023/03/10 12:24:00;;;;;;;15.85;6.97;;;8.60;90.10;;;;;;5016463;28;20029;-78
2023/03/10 12:26:59;;;;;;;15.85;8.23;;;8.60;90.40;;;;;;5028421;28;20509;-78
2023/03/10 12:29:24;;;;;;;14.75;9.18;;;8.70;90.70;;;;;;5011738;28;20037;-77
2023/03/10 12:31:52;;;;;;;17.75;12.15;;;8.80;90.50;;;;;;5025043;28;20580;-77
2023/03/10 12:34:22;;;;;;;22.92;15.35;;;8.80;90.90;;;;;;5024792;28;20018;-76
2023/03/10 12:37:08;;;;;;;23.35;16.98;;;8.80;91.30;;;;;;5007189;28;20422;-76
2023/03/10 12:39:42;;;;;;;23.45;16.90;;;8.90;91.50;;;;;;5023795;28;20185;-77
2023/03/10 12:42:26;;;;;;;27.85;16.73;;;8.90;91.70;;;;;;5008483;28;20437;-77
2023/03/10 12:44:59;;;;;;;9.88;5.75;;;9.00;91.70;;;;;;5027163;28;20045;-76
2023/03/10 12:47:44;;;;;;;4.17;2.57;;;8.50;89.00;;;;;;5026941;28;20042;-76
2023/03/10 12:50:16;;;;;;;3.67;1.83;;;7.90;88.10;;;;;;5034129;28;20033;-75
2023/03/10 12:52:46;;;;;;;5.47;1.85;;;7.30;88.20;;;;;;5023255;28;20094;-75
2023/03/10 12:55:15;;;;;;;5.47;1.55;;;7.10;87.70;;;;;;5027623;28;20034;-75
2023/03/10 12:57:43;;;;;;;5.40;1.83;;;6.80;87.60;;;;;;5035385;28;20517;-77